Coral Coast — WDF5120 — position and weather

sailwx.info

Track history (hours):
 
Tides and Currents Weather Stations Pressure Air Temp Water Temp Dewpoint Dewpoint Depression Visibility Wind Speed Wind Dir Waves Ship Positions

Coral Coast

Owner: Dann MarineTowing, LC., Chesapeake City, MD. More information available from US FCC via Universal Licensing System and Coast Guard Vessel Documentation Center.

Last reported at 2017-Aug-15 18:13 UTC. Time now 2017-Aug-19 05:29 UTC.
Position N 40°57' W 073°54'.

Length 70 m; draft 5.3 m.

Type: Tug. MMSI: 367459570.

Date/timePositionNaut miles runAvg speedWind from/ knotsBaromVisibWave heightAir tempDewpointWater temp
2017-Aug-15 18:13N 40°57' W 073°54'2 7.8
2017-Aug-15 18:00N 40°55' W 073°55'4 7.5
2017-Aug-15 17:30N 40°52' W 073°57'4 7.8
2017-Aug-15 17:00N 40°48' W 073°59'4 7.9
2017-Aug-15 16:30N 40°44' W 074°01'4 7.6
2017-Aug-15 16:00N 40°41' W 074°02'2 3.2
2017-Aug-15 15:31N 40°40' W 074°00'0 0.1
2017-Aug-15 15:00N 40°40' W 074°00'0 0.0
2017-Aug-15 14:30N 40°40' W 074°00'0 0.0
2017-Aug-15 14:00N 40°40' W 074°00'0 0.0
2017-Aug-15 13:30N 40°40' W 074°00'0 0.0
2017-Aug-15 13:00N 40°40' W 074°00'0 0.0
2017-Aug-15 12:30N 40°40' W 074°00'0 0.0
2017-Aug-15 12:00N 40°40' W 074°00'0 0.0
2017-Aug-15 11:30N 40°40' W 074°00'0 0.0
2017-Aug-15 11:00N 40°40' W 074°00'0 0.0
2017-Aug-15 10:30N 40°40' W 074°00'0 0.0
2017-Aug-15 10:00N 40°40' W 074°00'0 0.0
2017-Aug-15 09:30N 40°40' W 074°00'0 0.0
2017-Aug-15 09:00N 40°40' W 074°00'0 0.0
2017-Aug-15 08:30N 40°40' W 074°00'0 0.0
2017-Aug-15 08:00N 40°40' W 074°00'0 0.0
2017-Aug-15 07:30N 40°40' W 074°00'0 0.0
2017-Aug-15 07:00N 40°40' W 074°00'0 0.0
2017-Aug-15 06:30N 40°40' W 074°00'0 0.0
2017-Aug-15 06:00N 40°40' W 074°00'0 0.0
2017-Aug-15 05:30N 40°40' W 074°00'0 0.0
2017-Aug-15 05:00N 40°40' W 074°00'0 0.0
2017-Aug-15 04:30N 40°40' W 074°00'0 0.0
2017-Aug-15 04:00N 40°40' W 074°00'0 0.0
2017-Aug-15 03:30N 40°40' W 074°00'0 0.0
2017-Aug-15 03:00N 40°40' W 074°00'0 0.0
2017-Aug-15 02:30N 40°40' W 074°00'0 0.0
2017-Aug-15 02:00N 40°40' W 074°00'0 0.0
2017-Aug-15 01:30N 40°40' W 074°00'0 0.0
2017-Aug-15 01:00N 40°40' W 074°00'0 0.0
2017-Aug-15 00:30N 40°40' W 074°00'0 0.0
2017-Aug-15 00:00N 40°40' W 074°00'0 0.0
2017-Aug-14 23:30N 40°40' W 074°00'0 0.1
2017-Aug-14 23:00N 40°40' W 074°00'0 0.0
2017-Aug-14 22:30N 40°40' W 074°00'0 0.0
2017-Aug-14 22:00N 40°40' W 074°00'0 0.0
2017-Aug-14 21:30N 40°40' W 074°00'0 0.0
2017-Aug-14 21:00N 40°40' W 074°00'0 0.0
2017-Aug-14 20:30N 40°40' W 074°00'0 0.0
2017-Aug-14 20:00N 40°40' W 074°00'0 0.0
2017-Aug-14 19:30N 40°40' W 074°00'0 0.0
2017-Aug-14 19:00N 40°40' W 074°00'0 0.0
2017-Aug-14 18:30N 40°40' W 074°00'0 0.0
2017-Aug-14 18:00N 40°40' W 074°00'0 0.0
2017-Aug-14 17:30N 40°40' W 074°00'0 0.0
2017-Aug-14 17:00N 40°40' W 074°00'0 0.0
2017-Aug-14 16:30N 40°40' W 074°00'0 0.0
2017-Aug-14 16:00N 40°40' W 074°00'0 0.0
2017-Aug-14 15:30N 40°40' W 074°00'0 0.0
2017-Aug-14 15:00N 40°40' W 074°00'0 0.0
2017-Aug-14 14:30N 40°40' W 074°00'0 0.0
2017-Aug-14 14:00N 40°40' W 074°00'0 0.0
2017-Aug-14 13:30N 40°40' W 074°00'0 0.0
2017-Aug-14 13:00N 40°40' W 074°00'0 0.0
2017-Aug-14 12:30N 40°40' W 074°00'0 0.0
2017-Aug-14 12:00N 40°40' W 074°00'0 0.0
2017-Aug-14 11:30N 40°40' W 074°00'0 0.0
2017-Aug-14 11:00N 40°40' W 074°00'0 0.0
2017-Aug-14 10:30N 40°40' W 074°00'0 0.0
2017-Aug-14 10:00N 40°40' W 074°00'0 0.0
2017-Aug-14 09:30N 40°40' W 074°00'0 0.0
2017-Aug-14 09:00N 40°40' W 074°00'0 0.0
2017-Aug-14 08:30N 40°40' W 074°00'0 0.0
2017-Aug-14 08:00N 40°40' W 074°00'0 0.0
2017-Aug-14 07:30N 40°40' W 074°00'0 0.0
2017-Aug-14 07:00N 40°40' W 074°00'0 0.0
2017-Aug-14 06:30N 40°40' W 074°00'0 0.0
2017-Aug-14 06:00N 40°40' W 074°00'3 6.3
2017-Aug-14 05:31N 40°39' W 074°04'2 4.0
2017-Aug-14 05:00N 40°39' W 074°07'0 0.0
2017-Aug-14 04:30N 40°39' W 074°07'0 0.0
2017-Aug-14 04:00N 40°39' W 074°07'0 0.0
2017-Aug-14 03:30N 40°39' W 074°07'0 0.0
2017-Aug-14 03:00N 40°39' W 074°07'0 0.0
2017-Aug-14 02:30N 40°39' W 074°07'0 0.0
2017-Aug-14 02:00N 40°39' W 074°07'0 0.0
2017-Aug-14 01:30N 40°39' W 074°07'0 0.0
2017-Aug-14 01:00N 40°39' W 074°07'0 0.0
2017-Aug-14 00:30N 40°39' W 074°07'0 0.0
2017-Aug-14 00:00N 40°39' W 074°07'0 0.0
2017-Aug-13 23:30N 40°39' W 074°07'0 0.0
2017-Aug-13 23:00N 40°39' W 074°07'0 0.5
2017-Aug-13 22:30N 40°39' W 074°06'5 9.6
2017-Aug-13 22:00N 40°40' W 074°00'0 0.2
2017-Aug-13 21:30N 40°40' W 074°00'1 1.5
2017-Aug-13 21:01N 40°40' W 074°01'4 8.5
2017-Aug-13 20:30N 40°44' W 073°58'5 9.2
2017-Aug-13 20:00N 40°47' W 073°55'3 5.4
2017-Aug-13 19:30N 40°47' W 073°51'1 2.2
2017-Aug-13 19:00N 40°46' W 073°51'0 0.0
2017-Aug-13 18:30N 40°46' W 073°51'0 0.0
2017-Aug-13 18:00N 40°46' W 073°51'0 0.0
2017-Aug-13 17:30N 40°46' W 073°51'0 0.0
2017-Aug-13 17:00N 40°46' W 073°51'0 0.0
2017-Aug-13 16:30N 40°46' W 073°51'0 0.0
2017-Aug-13 16:00N 40°46' W 073°51'0 0.0
2017-Aug-13 15:30N 40°46' W 073°51'0 0.0
2017-Aug-13 15:00N 40°46' W 073°51'0 0.0
2017-Aug-13 14:30N 40°46' W 073°51'0 0.0
2017-Aug-13 14:00N 40°46' W 073°51'0 0.0
2017-Aug-13 13:30N 40°46' W 073°51'0 0.0
2017-Aug-13 13:00N 40°46' W 073°51'0 0.0
2017-Aug-13 12:30N 40°46' W 073°51'0 0.0
2017-Aug-13 12:00N 40°46' W 073°51'0 0.0
2017-Aug-13 11:30N 40°46' W 073°51'0 0.0
2017-Aug-13 11:00N 40°46' W 073°51'0 0.0
2017-Aug-13 10:30N 40°46' W 073°51'0 0.0
2017-Aug-13 10:00N 40°46' W 073°51'0 0.0
2017-Aug-13 09:30N 40°46' W 073°51'0 0.0
2017-Aug-13 09:00N 40°46' W 073°51'0 0.0
2017-Aug-13 08:30N 40°46' W 073°51'0 0.0
2017-Aug-13 08:00N 40°46' W 073°51'1 1.4
2017-Aug-13 07:30N 40°46' W 073°51'2 4.3
2017-Aug-13 06:59N 40°48' W 073°53'4 7.4
2017-Aug-13 06:30N 40°46' W 073°57'4 8.3
2017-Aug-13 06:00N 40°42' W 073°60'3 5.1
2017-Aug-13 05:30N 40°45' W 074°01'4 7.4
2017-Aug-13 05:00N 40°48' W 073°59'4 7.3
2017-Aug-13 04:30N 40°51' W 073°57'4 7.6
2017-Aug-13 04:00N 40°55' W 073°55'3 0.1
2017-Aug-11 07:58N 40°58' W 073°54'4 8.9
2017-Aug-11 07:30N 40°54' W 073°55'5 9.2
2017-Aug-11 07:00N 40°49' W 073°58'5 9.1
2017-Aug-11 06:30N 40°45' W 074°01'3 6.5
2017-Aug-11 06:00N 40°42' W 073°60'4 8.6
2017-Aug-11 05:30N 40°46' W 073°57'3 6.2
2017-Aug-11 05:00N 40°48' W 073°54'2 4.4
2017-Aug-11 04:30N 40°47' W 073°52'1 2.5
2017-Aug-11 04:00N 40°46' W 073°51'0 0.0
2017-Aug-11 03:30N 40°46' W 073°51'0 0.0
2017-Aug-11 03:00N 40°46' W 073°51'0 0.0
2017-Aug-11 02:30N 40°46' W 073°51'0 0.0
2017-Aug-11 02:00N 40°46' W 073°51'0 0.0
2017-Aug-11 01:30N 40°46' W 073°51'0 0.0
2017-Aug-11 01:00N 40°46' W 073°51'0 0.0
2017-Aug-11 00:30N 40°46' W 073°51'0 0.0
2017-Aug-11 00:00N 40°46' W 073°51'0 0.0
2017-Aug-10 23:30N 40°46' W 073°51'0 0.0
2017-Aug-10 23:00N 40°46' W 073°51'0 0.0
2017-Aug-10 22:30N 40°46' W 073°51'0 0.0
2017-Aug-10 22:00N 40°46' W 073°51'0 0.0
2017-Aug-10 21:30N 40°46' W 073°51'0 0.0
2017-Aug-10 21:00N 40°46' W 073°51'0 0.0
2017-Aug-10 20:30N 40°46' W 073°51'0 0.0
2017-Aug-10 20:00N 40°46' W 073°51'0 0.0
2017-Aug-10 19:30N 40°46' W 073°51'0 0.0
2017-Aug-10 19:00N 40°46' W 073°51'0 0.0
2017-Aug-10 18:30N 40°46' W 073°51'0 0.0
2017-Aug-10 18:00N 40°46' W 073°51'0 0.0
2017-Aug-10 17:30N 40°46' W 073°51'0 0.0
2017-Aug-10 17:00N 40°46' W 073°51'0 0.0
2017-Aug-10 16:30N 40°46' W 073°51'0 0.0
2017-Aug-10 16:00N 40°46' W 073°51'0 0.0
2017-Aug-10 15:30N 40°46' W 073°51'0 0.0
2017-Aug-10 15:00N 40°46' W 073°51'0 0.0
2017-Aug-10 14:30N 40°46' W 073°51'0 0.0
2017-Aug-10 13:58N 40°46' W 073°51'0 0.0
2017-Aug-10 13:30N 40°46' W 073°51'0 0.0
2017-Aug-10 13:00N 40°46' W 073°51'0 0.0
2017-Aug-10 12:30N 40°46' W 073°51'0 0.0
2017-Aug-10 12:00N 40°46' W 073°51'0 0.0
2017-Aug-10 11:30N 40°46' W 073°51'0 0.0
2017-Aug-10 11:00N 40°46' W 073°51'0 0.0
2017-Aug-10 10:30N 40°46' W 073°51'0 0.0
2017-Aug-10 10:00N 40°46' W 073°51'0 0.0
2017-Aug-10 09:30N 40°46' W 073°51'0 0.0
2017-Aug-10 09:00N 40°46' W 073°51'0 0.0
2017-Aug-10 08:31N 40°46' W 073°51'0 0.0
2017-Aug-10 08:00N 40°46' W 073°51'0 0.0
2017-Aug-10 07:30N 40°46' W 073°51'0 0.0
2017-Aug-10 07:00N 40°46' W 073°51'0 0.0
2017-Aug-10 06:30N 40°46' W 073°51'0 0.0
2017-Aug-10 06:00N 40°46' W 073°51'0 0.0
2017-Aug-10 05:30N 40°46' W 073°51'0 0.0
2017-Aug-10 05:00N 40°46' W 073°51'0 0.0
2017-Aug-10 04:30N 40°46' W 073°51'0 0.0
2017-Aug-10 04:00N 40°46' W 073°51'2 3.4
2017-Aug-10 03:29N 40°47' W 073°52'3 5.7
2017-Aug-10 02:59N 40°47' W 073°55'4 9.3
2017-Aug-10 02:30N 40°43' W 073°58'4 9.0
2017-Aug-10 02:00N 40°39' W 074°02'4 7.6
2017-Aug-10 01:30N 40°36' W 074°02'0 0.1
2017-Aug-10 01:00N 40°36' W 074°02'0 0.2
2017-Aug-10 00:30N 40°36' W 074°02'0 0.7
2017-Aug-10 00:00N 40°36' W 074°02'1 1.0
2017-Aug-09 23:30N 40°35' W 074°02'2 4.7
2017-Aug-09 23:00N 40°33' W 074°02'4 6.6
2017-Aug-09 22:25N 40°31' W 073°58'3 6.3
2017-Aug-09 22:01N 40°29' W 073°55'2 4.7
2017-Aug-09 21:30N 40°27' W 073°54'3 6.0
2017-Aug-09 20:55N 40°24' W 073°54'4 8.4
2017-Aug-09 20:29N 40°20' W 073°54'4 8.5
2017-Aug-09 20:00N 40°16' W 073°54'5 8.5
2017-Aug-09 19:27N 40°11' W 073°55'15 8.1
2017-Aug-09 17:33N 39°56' W 073°57'0 8.1
2017-Aug-09 17:30N 39°56' W 073°57'4 7.8
2017-Aug-09 17:00N 39°52' W 073°58'4 7.7
2017-Aug-09 16:30N 39°48' W 073°58'4 7.6
2017-Aug-09 15:59N 39°44' W 073°59'4 7.6
2017-Aug-09 15:31N 39°41' W 074°01'4 7.6
2017-Aug-09 15:00N 39°37' W 074°04'4 7.7
2017-Aug-09 14:29N 39°33' W 074°05'4 7.7
2017-Aug-09 13:58N 39°30' W 074°08'4 7.9
2017-Aug-09 13:30N 39°27' W 074°11'4 8.0
2017-Aug-09 13:00N 39°24' W 074°14'4 7.9
2017-Aug-09 12:30N 39°21' W 074°17'4 7.8
2017-Aug-09 12:00N 39°18' W 074°20'4 7.9
2017-Aug-09 11:30N 39°15' W 074°23'4 7.8
2017-Aug-09 11:00N 39°12' W 074°26'4 7.8
2017-Aug-09 10:29N 39°09' W 074°30'4 7.7
2017-Aug-09 10:00N 39°06' W 074°33'4 7.7
2017-Aug-09 09:30N 39°03' W 074°36'4 7.7
2017-Aug-09 09:01N 39°00' W 074°40'4 7.6
2017-Aug-09 08:30N 38°58' W 074°43'4 7.8
2017-Aug-09 08:01N 38°54' W 074°46'4 7.8
2017-Aug-09 07:30N 38°51' W 074°49'4 8.0
2017-Aug-09 07:00N 38°49' W 074°53'4 8.1
2017-Aug-09 06:30N 38°48' W 074°58'4 8.6
2017-Aug-09 06:00N 38°51' W 075°03'510.1
2017-Aug-09 05:30N 38°56' W 075°05'5 9.9
2017-Aug-09 05:00N 38°60' W 075°08'5 9.3
2017-Aug-09 04:30N 39°04' W 075°11'4 8.5
2017-Aug-09 04:00N 39°08' W 075°14'4 7.7
2017-Aug-09 03:30N 39°11' W 075°16'4 7.0
2017-Aug-09 03:00N 39°14' W 075°18'3 6.4
2017-Aug-09 02:30N 39°16' W 075°21'3 6.0
2017-Aug-09 02:00N 39°19' W 075°24'2 4.9
2017-Aug-09 01:30N 39°20' W 075°26'0 0.8
2017-Aug-09 01:00N 39°21' W 075°26'4 7.5
2017-Aug-09 00:30N 39°24' W 075°29'4 8.4
2017-Aug-09 00:01N 39°27' W 075°33'5 9.2
2017-Aug-08 23:30N 39°31' W 075°33'5 9.9
2017-Aug-08 23:00N 39°36' W 075°34'5 9.9
2017-Aug-08 22:31N 39°41' W 075°31'510.8
2017-Aug-08 22:00N 39°46' W 075°29'510.6
2017-Aug-08 21:30N 39°49' W 075°24'510.1
2017-Aug-08 21:01N 39°51' W 075°17'5 9.5
2017-Aug-08 20:30N 39°53' W 075°12'4 7.6
2017-Aug-08 20:01N 39°55' W 075°08'0 0.1
2017-Aug-08 19:30N 39°55' W 075°08'0 0.0
2017-Aug-08 19:01N 39°55' W 075°08'0 0.0
2017-Aug-08 18:30N 39°55' W 075°08'0 0.0
2017-Aug-08 18:01N 39°55' W 075°08'0 0.0
2017-Aug-08 17:30N 39°55' W 075°08'0 0.0
2017-Aug-08 17:01N 39°55' W 075°08'0 0.0
2017-Aug-08 16:30N 39°55' W 075°08'0 0.0
2017-Aug-08 16:00N 39°55' W 075°08'0 0.0
2017-Aug-08 15:30N 39°55' W 075°08'0 0.0
2017-Aug-08 15:00N 39°55' W 075°08'0 0.0
2017-Aug-08 14:30N 39°55' W 075°08'0 0.0
2017-Aug-08 14:01N 39°55' W 075°08'0 0.0
2017-Aug-08 13:31N 39°55' W 075°08'0 0.0
2017-Aug-08 13:00N 39°55' W 075°08'0 0.0
2017-Aug-08 12:30N 39°55' W 075°08'0 0.0
2017-Aug-08 12:00N 39°55' W 075°08'0 0.0
2017-Aug-08 11:30N 39°55' W 075°08'0 0.0
2017-Aug-08 11:00N 39°55' W 075°08'0 0.0
2017-Aug-08 10:30N 39°55' W 075°08'0 0.0
2017-Aug-08 10:01N 39°55' W 075°08'0 0.0
2017-Aug-08 09:31N 39°55' W 075°08'0 0.0
2017-Aug-08 09:00N 39°55' W 075°08'0 0.0
2017-Aug-08 08:30N 39°55' W 075°08'0 0.0
2017-Aug-08 08:00N 39°55' W 075°08'0 0.0
2017-Aug-08 07:30N 39°55' W 075°08'0 0.0
2017-Aug-08 07:01N 39°55' W 075°08'0 0.0
2017-Aug-08 06:30N 39°55' W 075°08'0 0.0
2017-Aug-08 06:01N 39°55' W 075°08'0 0.0
2017-Aug-08 05:30N 39°55' W 075°08'0 0.0
2017-Aug-08 05:01N 39°55' W 075°08'0 0.0
2017-Aug-08 04:30N 39°55' W 075°08'0 0.0
2017-Aug-08 04:00N 39°55' W 075°08'0 0.0
2017-Aug-08 03:31N 39°55' W 075°08'0 0.0
2017-Aug-08 03:00N 39°55' W 075°08'0 0.0
2017-Aug-08 02:30N 39°55' W 075°08'0 0.0
2017-Aug-08 02:00N 39°55' W 075°08'0 0.0
2017-Aug-08 01:30N 39°55' W 075°08'0 0.0
2017-Aug-08 01:00N 39°55' W 075°08'0 0.0
2017-Aug-08 00:30N 39°55' W 075°08'0 0.0
2017-Aug-08 00:00N 39°55' W 075°08'0 0.0
2017-Aug-07 23:30N 39°55' W 075°08'0 0.0
2017-Aug-07 23:00N 39°55' W 075°08'0 0.0
2017-Aug-07 22:30N 39°55' W 075°08'0 0.0
2017-Aug-07 22:00N 39°55' W 075°08'0 0.0
2017-Aug-07 21:30N 39°55' W 075°08'0 0.2
2017-Aug-07 21:00N 39°55' W 075°08'1 2.7
2017-Aug-07 20:30N 39°54' W 075°08'2 3.1
2017-Aug-07 20:00N 39°53' W 075°10'2 3.6
2017-Aug-07 19:30N 39°53' W 075°12'2 4.4
2017-Aug-07 19:00N 39°51' W 075°15'2 4.7
2017-Aug-07 18:30N 39°51' W 075°18'3 5.0
2017-Aug-07 18:00N 39°51' W 075°21'3 5.5
2017-Aug-07 17:30N 39°49' W 075°24'3 5.5
2017-Aug-07 17:00N 39°47' W 075°27'3 5.9
2017-Aug-07 16:30N 39°45' W 075°29'3 6.1
2017-Aug-07 16:01N 39°42' W 075°31'3 6.9
2017-Aug-07 15:31N 39°39' W 075°33'3 6.3
2017-Aug-07 15:00N 39°36' W 075°34'4 7.1
2017-Aug-07 14:30N 39°33' W 075°32'4 7.2
2017-Aug-07 14:00N 39°30' W 075°33'4 7.5
2017-Aug-07 13:30N 39°26' W 075°32'4 7.7
2017-Aug-07 13:01N 39°23' W 075°29'4 8.2
2017-Aug-07 12:30N 39°20' W 075°25'5 9.4
2017-Aug-07 12:01N 39°17' W 075°21'5 9.1
2017-Aug-07 11:30N 39°13' W 075°18'5 9.7
2017-Aug-07 11:00N 39°09' W 075°14'5 9.5
2017-Aug-07 10:30N 39°05' W 075°11'5 9.3
2017-Aug-07 10:00N 39°00' W 075°09'5 9.5
2017-Aug-07 09:30N 38°56' W 075°06'4 8.7
2017-Aug-07 09:01N 38°52' W 075°04'5 9.4
2017-Aug-07 08:30N 38°48' W 075°00'5 9.8
2017-Aug-07 08:00N 38°49' W 074°54'48 9.3
2017-Aug-07 02:53N 39°25' W 074°13'4 9.3
2017-Aug-07 02:30N 39°28' W 074°10'5 9.3
2017-Aug-07 02:00N 39°32' W 074°07'5 9.4
2017-Aug-07 01:30N 39°36' W 074°04'5 9.4
2017-Aug-07 01:00N 39°40' W 074°02'5 9.2
2017-Aug-07 00:29N 39°44' W 073°59'5 9.3
2017-Aug-06 23:54N 39°50' W 073°58'36 9.8
2017-Aug-06 20:13N 40°26' W 073°54'2 9.2
2017-Aug-06 19:59N 40°28' W 073°54'5 8.9
2017-Aug-06 19:28N 40°31' W 073°58'4 8.6
2017-Aug-06 19:00N 40°34' W 074°02'3 6.4
2017-Aug-06 18:30N 40°37' W 074°03'3 6.2
2017-Aug-06 18:00N 40°39' W 074°06'0 0.0
2017-Aug-06 17:30N 40°39' W 074°06'0 0.1
2017-Aug-06 17:00N 40°39' W 074°06'0 0.0
2017-Aug-06 16:30N 40°39' W 074°06'0 0.0
2017-Aug-06 16:00N 40°39' W 074°06'0 0.0
2017-Aug-06 15:30N 40°39' W 074°06'0 0.0
2017-Aug-06 15:00N 40°39' W 074°06'0 0.0
2017-Aug-06 14:30N 40°39' W 074°06'0 0.0
2017-Aug-06 14:00N 40°39' W 074°06'0 0.0
2017-Aug-06 13:30N 40°39' W 074°06'0 0.0
2017-Aug-06 13:00N 40°39' W 074°06'0 0.0
2017-Aug-06 12:31N 40°39' W 074°06'0 0.0
2017-Aug-06 12:00N 40°39' W 074°06'0 0.0
2017-Aug-06 11:30N 40°39' W 074°06'0 0.0
2017-Aug-06 11:00N 40°39' W 074°06'0 0.0
2017-Aug-06 10:30N 40°39' W 074°06'0 0.0
2017-Aug-06 10:00N 40°39' W 074°06'0 0.0
2017-Aug-06 09:31N 40°39' W 074°06'0 0.0
2017-Aug-06 09:00N 40°39' W 074°06'0 0.1
2017-Aug-06 08:30N 40°39' W 074°06'3 5.3
2017-Aug-06 08:00N 40°40' W 074°03'4 8.6
2017-Aug-06 07:30N 40°43' W 073°58'4 8.6
2017-Aug-06 06:59N 40°47' W 073°56'3 6.4
2017-Aug-06 06:30N 40°48' W 073°52'2 4.2
2017-Aug-06 06:00N 40°46' W 073°51'0 0.4
2017-Aug-06 05:30N 40°46' W 073°51'0 0.0
2017-Aug-06 05:00N 40°46' W 073°51'0 0.0
2017-Aug-06 04:30N 40°46' W 073°51'0 0.0
2017-Aug-06 04:00N 40°46' W 073°51'0 0.0
2017-Aug-06 03:30N 40°46' W 073°51'0 0.0
2017-Aug-06 03:00N 40°46' W 073°51'0 0.0
2017-Aug-06 02:30N 40°46' W 073°51'0 0.0
2017-Aug-06 02:00N 40°46' W 073°51'0 0.0
2017-Aug-06 01:30N 40°46' W 073°51'0 0.0
2017-Aug-06 01:00N 40°46' W 073°51'0 0.0
2017-Aug-06 00:30N 40°46' W 073°51'0 0.0
2017-Aug-05 23:50N 40°46' W 073°51'0 0.0
2017-Aug-05 23:28N 40°46' W 073°51'0 0.0
2017-Aug-05 23:00N 40°46' W 073°51'0 0.0
2017-Aug-05 22:29N 40°46' W 073°51'0 0.0
2017-Aug-05 22:00N 40°46' W 073°51'0 0.0
2017-Aug-05 21:29N 40°46' W 073°51'0 0.0
2017-Aug-05 21:00N 40°46' W 073°51'0 0.0
2017-Aug-05 20:30N 40°46' W 073°51'0 0.0
2017-Aug-05 20:01N 40°46' W 073°51'0 0.0
2017-Aug-05 19:30N 40°46' W 073°51'0 0.0
2017-Aug-05 18:59N 40°46' W 073°51'0 0.0
2017-Aug-05 18:30N 40°46' W 073°51'  
Track history (hours):
 
Tides and Currents Weather Stations Pressure Air Temp Water Temp Dewpoint Dewpoint Depression Visibility Wind Speed Wind Dir Waves Ship Positions

Coral Coast

Owner: Dann MarineTowing, LC., Chesapeake City, MD. More information available from US FCC via Universal Licensing System and Coast Guard Vessel Documentation Center.

Last reported at 2017-Aug-15 18:13 UTC. Time now 2017-Aug-19 05:29 UTC.
Position N 40°57' W 073°54'.

Length 70 m; draft 5.3 m.

Type: Tug. MMSI: 367459570.

Date/timePositionNaut miles runAvg speedWind from/ knotsBaromVisibWave heightAir tempDewpointWater temp
2017-Aug-15 18:13N 40°57' W 073°54'2 7.8
2017-Aug-15 18:00N 40°55' W 073°55'4 7.5
2017-Aug-15 17:30N 40°52' W 073°57'4 7.8
2017-Aug-15 17:00N 40°48' W 073°59'4 7.9
2017-Aug-15 16:30N 40°44' W 074°01'4 7.6
2017-Aug-15 16:00N 40°41' W 074°02'2 3.2
2017-Aug-15 15:31N 40°40' W 074°00'0 0.1
2017-Aug-15 15:00N 40°40' W 074°00'0 0.0
2017-Aug-15 14:30N 40°40' W 074°00'0 0.0
2017-Aug-15 14:00N 40°40' W 074°00'0 0.0
2017-Aug-15 13:30N 40°40' W 074°00'0 0.0
2017-Aug-15 13:00N 40°40' W 074°00'0 0.0
2017-Aug-15 12:30N 40°40' W 074°00'0 0.0
2017-Aug-15 12:00N 40°40' W 074°00'0 0.0
2017-Aug-15 11:30N 40°40' W 074°00'0 0.0
2017-Aug-15 11:00N 40°40' W 074°00'0 0.0
2017-Aug-15 10:30N 40°40' W 074°00'0 0.0
2017-Aug-15 10:00N 40°40' W 074°00'0 0.0
2017-Aug-15 09:30N 40°40' W 074°00'0 0.0
2017-Aug-15 09:00N 40°40' W 074°00'0 0.0
2017-Aug-15 08:30N 40°40' W 074°00'0 0.0
2017-Aug-15 08:00N 40°40' W 074°00'0 0.0
2017-Aug-15 07:30N 40°40' W 074°00'0 0.0
2017-Aug-15 07:00N 40°40' W 074°00'0 0.0
2017-Aug-15 06:30N 40°40' W 074°00'0 0.0
2017-Aug-15 06:00N 40°40' W 074°00'0 0.0
2017-Aug-15 05:30N 40°40' W 074°00'0 0.0
2017-Aug-15 05:00N 40°40' W 074°00'0 0.0
2017-Aug-15 04:30N 40°40' W 074°00'0 0.0
2017-Aug-15 04:00N 40°40' W 074°00'0 0.0
2017-Aug-15 03:30N 40°40' W 074°00'0 0.0
2017-Aug-15 03:00N 40°40' W 074°00'0 0.0
2017-Aug-15 02:30N 40°40' W 074°00'0 0.0
2017-Aug-15 02:00N 40°40' W 074°00'0 0.0
2017-Aug-15 01:30N 40°40' W 074°00'0 0.0
2017-Aug-15 01:00N 40°40' W 074°00'0 0.0
2017-Aug-15 00:30N 40°40' W 074°00'0 0.0
2017-Aug-15 00:00N 40°40' W 074°00'0 0.0
2017-Aug-14 23:30N 40°40' W 074°00'0 0.1
2017-Aug-14 23:00N 40°40' W 074°00'0 0.0
2017-Aug-14 22:30N 40°40' W 074°00'0 0.0
2017-Aug-14 22:00N 40°40' W 074°00'0 0.0
2017-Aug-14 21:30N 40°40' W 074°00'0 0.0
2017-Aug-14 21:00N 40°40' W 074°00'0 0.0
2017-Aug-14 20:30N 40°40' W 074°00'0 0.0
2017-Aug-14 20:00N 40°40' W 074°00'0 0.0
2017-Aug-14 19:30N 40°40' W 074°00'0 0.0
2017-Aug-14 19:00N 40°40' W 074°00'0 0.0
2017-Aug-14 18:30N 40°40' W 074°00'0 0.0
2017-Aug-14 18:00N 40°40' W 074°00'0 0.0
2017-Aug-14 17:30N 40°40' W 074°00'0 0.0
2017-Aug-14 17:00N 40°40' W 074°00'0 0.0
2017-Aug-14 16:30N 40°40' W 074°00'0 0.0
2017-Aug-14 16:00N 40°40' W 074°00'0 0.0
2017-Aug-14 15:30N 40°40' W 074°00'0 0.0
2017-Aug-14 15:00N 40°40' W 074°00'0 0.0
2017-Aug-14 14:30N 40°40' W 074°00'0 0.0
2017-Aug-14 14:00N 40°40' W 074°00'0 0.0
2017-Aug-14 13:30N 40°40' W 074°00'0 0.0
2017-Aug-14 13:00N 40°40' W 074°00'0 0.0
2017-Aug-14 12:30N 40°40' W 074°00'0 0.0
2017-Aug-14 12:00N 40°40' W 074°00'0 0.0
2017-Aug-14 11:30N 40°40' W 074°00'0 0.0
2017-Aug-14 11:00N 40°40' W 074°00'0 0.0
2017-Aug-14 10:30N 40°40' W 074°00'0 0.0
2017-Aug-14 10:00N 40°40' W 074°00'0 0.0
2017-Aug-14 09:30N 40°40' W 074°00'0 0.0
2017-Aug-14 09:00N 40°40' W 074°00'0 0.0
2017-Aug-14 08:30N 40°40' W 074°00'0 0.0
2017-Aug-14 08:00N 40°40' W 074°00'0 0.0
2017-Aug-14 07:30N 40°40' W 074°00'0 0.0
2017-Aug-14 07:00N 40°40' W 074°00'0 0.0
2017-Aug-14 06:30N 40°40' W 074°00'0 0.0
2017-Aug-14 06:00N 40°40' W 074°00'3 6.3
2017-Aug-14 05:31N 40°39' W 074°04'2 4.0
2017-Aug-14 05:00N 40°39' W 074°07'0 0.0
2017-Aug-14 04:30N 40°39' W 074°07'0 0.0
2017-Aug-14 04:00N 40°39' W 074°07'0 0.0
2017-Aug-14 03:30N 40°39' W 074°07'0 0.0
2017-Aug-14 03:00N 40°39' W 074°07'0 0.0
2017-Aug-14 02:30N 40°39' W 074°07'0 0.0
2017-Aug-14 02:00N 40°39' W 074°07'0 0.0
2017-Aug-14 01:30N 40°39' W 074°07'0 0.0
2017-Aug-14 01:00N 40°39' W 074°07'0 0.0
2017-Aug-14 00:30N 40°39' W 074°07'0 0.0
2017-Aug-14 00:00N 40°39' W 074°07'0 0.0
2017-Aug-13 23:30N 40°39' W 074°07'0 0.0
2017-Aug-13 23:00N 40°39' W 074°07'0 0.5
2017-Aug-13 22:30N 40°39' W 074°06'5 9.6
2017-Aug-13 22:00N 40°40' W 074°00'0 0.2
2017-Aug-13 21:30N 40°40' W 074°00'1 1.5
2017-Aug-13 21:01N 40°40' W 074°01'4 8.5
2017-Aug-13 20:30N 40°44' W 073°58'5 9.2
2017-Aug-13 20:00N 40°47' W 073°55'3 5.4
2017-Aug-13 19:30N 40°47' W 073°51'1 2.2
2017-Aug-13 19:00N 40°46' W 073°51'0 0.0
2017-Aug-13 18:30N 40°46' W 073°51'0 0.0
2017-Aug-13 18:00N 40°46' W 073°51'0 0.0
2017-Aug-13 17:30N 40°46' W 073°51'0 0.0
2017-Aug-13 17:00N 40°46' W 073°51'0 0.0
2017-Aug-13 16:30N 40°46' W 073°51'0 0.0
2017-Aug-13 16:00N 40°46' W 073°51'0 0.0
2017-Aug-13 15:30N 40°46' W 073°51'0 0.0
2017-Aug-13 15:00N 40°46' W 073°51'0 0.0
2017-Aug-13 14:30N 40°46' W 073°51'0 0.0
2017-Aug-13 14:00N 40°46' W 073°51'0 0.0
2017-Aug-13 13:30N 40°46' W 073°51'0 0.0
2017-Aug-13 13:00N 40°46' W 073°51'0 0.0
2017-Aug-13 12:30N 40°46' W 073°51'0 0.0
2017-Aug-13 12:00N 40°46' W 073°51'0 0.0
2017-Aug-13 11:30N 40°46' W 073°51'0 0.0
2017-Aug-13 11:00N 40°46' W 073°51'0 0.0
2017-Aug-13 10:30N 40°46' W 073°51'0 0.0
2017-Aug-13 10:00N 40°46' W 073°51'0 0.0
2017-Aug-13 09:30N 40°46' W 073°51'0 0.0
2017-Aug-13 09:00N 40°46' W 073°51'0 0.0
2017-Aug-13 08:30N 40°46' W 073°51'0 0.0
2017-Aug-13 08:00N 40°46' W 073°51'1 1.4
2017-Aug-13 07:30N 40°46' W 073°51'2 4.3
2017-Aug-13 06:59N 40°48' W 073°53'4 7.4
2017-Aug-13 06:30N 40°46' W 073°57'4 8.3
2017-Aug-13 06:00N 40°42' W 073°60'3 5.1
2017-Aug-13 05:30N 40°45' W 074°01'4 7.4
2017-Aug-13 05:00N 40°48' W 073°59'4 7.3
2017-Aug-13 04:30N 40°51' W 073°57'4 7.6
2017-Aug-13 04:00N 40°55' W 073°55'3 0.1
2017-Aug-11 07:58N 40°58' W 073°54'4 8.9
2017-Aug-11 07:30N 40°54' W 073°55'5 9.2
2017-Aug-11 07:00N 40°49' W 073°58'5 9.1
2017-Aug-11 06:30N 40°45' W 074°01'3 6.5
2017-Aug-11 06:00N 40°42' W 073°60'4 8.6
2017-Aug-11 05:30N 40°46' W 073°57'3 6.2
2017-Aug-11 05:00N 40°48' W 073°54'2 4.4
2017-Aug-11 04:30N 40°47' W 073°52'1 2.5
2017-Aug-11 04:00N 40°46' W 073°51'0 0.0
2017-Aug-11 03:30N 40°46' W 073°51'0 0.0
2017-Aug-11 03:00N 40°46' W 073°51'0 0.0
2017-Aug-11 02:30N 40°46' W 073°51'0 0.0
2017-Aug-11 02:00N 40°46' W 073°51'0 0.0
2017-Aug-11 01:30N 40°46' W 073°51'0 0.0
2017-Aug-11 01:00N 40°46' W 073°51'0 0.0
2017-Aug-11 00:30N 40°46' W 073°51'0 0.0
2017-Aug-11 00:00N 40°46' W 073°51'0 0.0
2017-Aug-10 23:30N 40°46' W 073°51'0 0.0
2017-Aug-10 23:00N 40°46' W 073°51'0 0.0
2017-Aug-10 22:30N 40°46' W 073°51'0 0.0
2017-Aug-10 22:00N 40°46' W 073°51'0 0.0
2017-Aug-10 21:30N 40°46' W 073°51'0 0.0
2017-Aug-10 21:00N 40°46' W 073°51'0 0.0
2017-Aug-10 20:30N 40°46' W 073°51'0 0.0
2017-Aug-10 20:00N 40°46' W 073°51'0 0.0
2017-Aug-10 19:30N 40°46' W 073°51'0 0.0
2017-Aug-10 19:00N 40°46' W 073°51'0 0.0
2017-Aug-10 18:30N 40°46' W 073°51'0 0.0
2017-Aug-10 18:00N 40°46' W 073°51'0 0.0
2017-Aug-10 17:30N 40°46' W 073°51'0 0.0
2017-Aug-10 17:00N 40°46' W 073°51'0 0.0
2017-Aug-10 16:30N 40°46' W 073°51'0 0.0
2017-Aug-10 16:00N 40°46' W 073°51'0 0.0
2017-Aug-10 15:30N 40°46' W 073°51'0 0.0
2017-Aug-10 15:00N 40°46' W 073°51'0 0.0
2017-Aug-10 14:30N 40°46' W 073°51'0 0.0
2017-Aug-10 13:58N 40°46' W 073°51'0 0.0
2017-Aug-10 13:30N 40°46' W 073°51'0 0.0
2017-Aug-10 13:00N 40°46' W 073°51'0 0.0
2017-Aug-10 12:30N 40°46' W 073°51'0 0.0
2017-Aug-10 12:00N 40°46' W 073°51'0 0.0
2017-Aug-10 11:30N 40°46' W 073°51'0 0.0
2017-Aug-10 11:00N 40°46' W 073°51'0 0.0
2017-Aug-10 10:30N 40°46' W 073°51'0 0.0
2017-Aug-10 10:00N 40°46' W 073°51'0 0.0
2017-Aug-10 09:30N 40°46' W 073°51'0 0.0
2017-Aug-10 09:00N 40°46' W 073°51'0 0.0
2017-Aug-10 08:31N 40°46' W 073°51'0 0.0
2017-Aug-10 08:00N 40°46' W 073°51'0 0.0
2017-Aug-10 07:30N 40°46' W 073°51'0 0.0
2017-Aug-10 07:00N 40°46' W 073°51'0 0.0
2017-Aug-10 06:30N 40°46' W 073°51'0 0.0
2017-Aug-10 06:00N 40°46' W 073°51'0 0.0
2017-Aug-10 05:30N 40°46' W 073°51'0 0.0
2017-Aug-10 05:00N 40°46' W 073°51'0 0.0
2017-Aug-10 04:30N 40°46' W 073°51'0 0.0
2017-Aug-10 04:00N 40°46' W 073°51'2 3.4
2017-Aug-10 03:29N 40°47' W 073°52'3 5.7
2017-Aug-10 02:59N 40°47' W 073°55'4 9.3
2017-Aug-10 02:30N 40°43' W 073°58'4 9.0
2017-Aug-10 02:00N 40°39' W 074°02'4 7.6
2017-Aug-10 01:30N 40°36' W 074°02'0 0.1
2017-Aug-10 01:00N 40°36' W 074°02'0 0.2
2017-Aug-10 00:30N 40°36' W 074°02'0 0.7
2017-Aug-10 00:00N 40°36' W 074°02'1 1.0
2017-Aug-09 23:30N 40°35' W 074°02'2 4.7
2017-Aug-09 23:00N 40°33' W 074°02'4 6.6
2017-Aug-09 22:25N 40°31' W 073°58'3 6.3
2017-Aug-09 22:01N 40°29' W 073°55'2 4.7
2017-Aug-09 21:30N 40°27' W 073°54'3 6.0
2017-Aug-09 20:55N 40°24' W 073°54'4 8.4
2017-Aug-09 20:29N 40°20' W 073°54'4 8.5
2017-Aug-09 20:00N 40°16' W 073°54'5 8.5
2017-Aug-09 19:27N 40°11' W 073°55'15 8.1
2017-Aug-09 17:33N 39°56' W 073°57'0 8.1
2017-Aug-09 17:30N 39°56' W 073°57'4 7.8
2017-Aug-09 17:00N 39°52' W 073°58'4 7.7
2017-Aug-09 16:30N 39°48' W 073°58'4 7.6
2017-Aug-09 15:59N 39°44' W 073°59'4 7.6
2017-Aug-09 15:31N 39°41' W 074°01'4 7.6
2017-Aug-09 15:00N 39°37' W 074°04'4 7.7
2017-Aug-09 14:29N 39°33' W 074°05'4 7.7
2017-Aug-09 13:58N 39°30' W 074°08'4 7.9
2017-Aug-09 13:30N 39°27' W 074°11'4 8.0
2017-Aug-09 13:00N 39°24' W 074°14'4 7.9
2017-Aug-09 12:30N 39°21' W 074°17'4 7.8
2017-Aug-09 12:00N 39°18' W 074°20'4 7.9
2017-Aug-09 11:30N 39°15' W 074°23'4 7.8
2017-Aug-09 11:00N 39°12' W 074°26'4 7.8
2017-Aug-09 10:29N 39°09' W 074°30'4 7.7
2017-Aug-09 10:00N 39°06' W 074°33'4 7.7
2017-Aug-09 09:30N 39°03' W 074°36'4 7.7
2017-Aug-09 09:01N 39°00' W 074°40'4 7.6
2017-Aug-09 08:30N 38°58' W 074°43'4 7.8
2017-Aug-09 08:01N 38°54' W 074°46'4 7.8
2017-Aug-09 07:30N 38°51' W 074°49'4 8.0
2017-Aug-09 07:00N 38°49' W 074°53'4 8.1
2017-Aug-09 06:30N 38°48' W 074°58'4 8.6
2017-Aug-09 06:00N 38°51' W 075°03'510.1
2017-Aug-09 05:30N 38°56' W 075°05'5 9.9
2017-Aug-09 05:00N 38°60' W 075°08'5 9.3
2017-Aug-09 04:30N 39°04' W 075°11'4 8.5
2017-Aug-09 04:00N 39°08' W 075°14'4 7.7
2017-Aug-09 03:30N 39°11' W 075°16'4 7.0
2017-Aug-09 03:00N 39°14' W 075°18'3 6.4
2017-Aug-09 02:30N 39°16' W 075°21'3 6.0
2017-Aug-09 02:00N 39°19' W 075°24'2 4.9
2017-Aug-09 01:30N 39°20' W 075°26'0 0.8
2017-Aug-09 01:00N 39°21' W 075°26'4 7.5
2017-Aug-09 00:30N 39°24' W 075°29'4 8.4
2017-Aug-09 00:01N 39°27' W 075°33'5 9.2
2017-Aug-08 23:30N 39°31' W 075°33'5 9.9
2017-Aug-08 23:00N 39°36' W 075°34'5 9.9
2017-Aug-08 22:31N 39°41' W 075°31'510.8
2017-Aug-08 22:00N 39°46' W 075°29'510.6
2017-Aug-08 21:30N 39°49' W 075°24'510.1
2017-Aug-08 21:01N 39°51' W 075°17'5 9.5
2017-Aug-08 20:30N 39°53' W 075°12'4 7.6
2017-Aug-08 20:01N 39°55' W 075°08'0 0.1
2017-Aug-08 19:30N 39°55' W 075°08'0 0.0
2017-Aug-08 19:01N 39°55' W 075°08'0 0.0
2017-Aug-08 18:30N 39°55' W 075°08'0 0.0
2017-Aug-08 18:01N 39°55' W 075°08'0 0.0
2017-Aug-08 17:30N 39°55' W 075°08'0 0.0
2017-Aug-08 17:01N 39°55' W 075°08'0 0.0
2017-Aug-08 16:30N 39°55' W 075°08'0 0.0
2017-Aug-08 16:00N 39°55' W 075°08'0 0.0
2017-Aug-08 15:30N 39°55' W 075°08'0 0.0
2017-Aug-08 15:00N 39°55' W 075°08'0 0.0
2017-Aug-08 14:30N 39°55' W 075°08'0 0.0
2017-Aug-08 14:01N 39°55' W 075°08'0 0.0
2017-Aug-08 13:31N 39°55' W 075°08'0 0.0
2017-Aug-08 13:00N 39°55' W 075°08'0 0.0
2017-Aug-08 12:30N 39°55' W 075°08'0 0.0
2017-Aug-08 12:00N 39°55' W 075°08'0 0.0
2017-Aug-08 11:30N 39°55' W 075°08'0 0.0
2017-Aug-08 11:00N 39°55' W 075°08'0 0.0
2017-Aug-08 10:30N 39°55' W 075°08'0 0.0
2017-Aug-08 10:01N 39°55' W 075°08'0 0.0
2017-Aug-08 09:31N 39°55' W 075°08'0 0.0
2017-Aug-08 09:00N 39°55' W 075°08'0 0.0
2017-Aug-08 08:30N 39°55' W 075°08'0 0.0
2017-Aug-08 08:00N 39°55' W 075°08'0 0.0
2017-Aug-08 07:30N 39°55' W 075°08'0 0.0
2017-Aug-08 07:01N 39°55' W 075°08'0 0.0
2017-Aug-08 06:30N 39°55' W 075°08'0 0.0
2017-Aug-08 06:01N 39°55' W 075°08'0 0.0
2017-Aug-08 05:30N 39°55' W 075°08'0 0.0
2017-Aug-08 05:01N 39°55' W 075°08'0 0.0
2017-Aug-08 04:30N 39°55' W 075°08'0 0.0
2017-Aug-08 04:00N 39°55' W 075°08'0 0.0
2017-Aug-08 03:31N 39°55' W 075°08'0 0.0
2017-Aug-08 03:00N 39°55' W 075°08'0 0.0
2017-Aug-08 02:30N 39°55' W 075°08'0 0.0
2017-Aug-08 02:00N 39°55' W 075°08'0 0.0
2017-Aug-08 01:30N 39°55' W 075°08'0 0.0
2017-Aug-08 01:00N 39°55' W 075°08'0 0.0
2017-Aug-08 00:30N 39°55' W 075°08'0 0.0
2017-Aug-08 00:00N 39°55' W 075°08'0 0.0
2017-Aug-07 23:30N 39°55' W 075°08'0 0.0
2017-Aug-07 23:00N 39°55' W 075°08'0 0.0
2017-Aug-07 22:30N 39°55' W 075°08'0 0.0
2017-Aug-07 22:00N 39°55' W 075°08'0 0.0
2017-Aug-07 21:30N 39°55' W 075°08'0 0.2
2017-Aug-07 21:00N 39°55' W 075°08'1 2.7
2017-Aug-07 20:30N 39°54' W 075°08'2 3.1
2017-Aug-07 20:00N 39°53' W 075°10'2 3.6
2017-Aug-07 19:30N 39°53' W 075°12'2 4.4
2017-Aug-07 19:00N 39°51' W 075°15'2 4.7
2017-Aug-07 18:30N 39°51' W 075°18'3 5.0
2017-Aug-07 18:00N 39°51' W 075°21'3 5.5
2017-Aug-07 17:30N 39°49' W 075°24'3 5.5
2017-Aug-07 17:00N 39°47' W 075°27'3 5.9
2017-Aug-07 16:30N 39°45' W 075°29'3 6.1
2017-Aug-07 16:01N 39°42' W 075°31'3 6.9
2017-Aug-07 15:31N 39°39' W 075°33'3 6.3
2017-Aug-07 15:00N 39°36' W 075°34'4 7.1
2017-Aug-07 14:30N 39°33' W 075°32'4 7.2
2017-Aug-07 14:00N 39°30' W 075°33'4 7.5
2017-Aug-07 13:30N 39°26' W 075°32'4 7.7
2017-Aug-07 13:01N 39°23' W 075°29'4 8.2
2017-Aug-07 12:30N 39°20' W 075°25'5 9.4
2017-Aug-07 12:01N 39°17' W 075°21'5 9.1
2017-Aug-07 11:30N 39°13' W 075°18'5 9.7
2017-Aug-07 11:00N 39°09' W 075°14'5 9.5
2017-Aug-07 10:30N 39°05' W 075°11'5 9.3
2017-Aug-07 10:00N 39°00' W 075°09'5 9.5
2017-Aug-07 09:30N 38°56' W 075°06'4 8.7
2017-Aug-07 09:01N 38°52' W 075°04'5 9.4
2017-Aug-07 08:30N 38°48' W 075°00'5 9.8
2017-Aug-07 08:00N 38°49' W 074°54'48 9.3
2017-Aug-07 02:53N 39°25' W 074°13'4 9.3
2017-Aug-07 02:30N 39°28' W 074°10'5 9.3
2017-Aug-07 02:00N 39°32' W 074°07'5 9.4
2017-Aug-07 01:30N 39°36' W 074°04'5 9.4
2017-Aug-07 01:00N 39°40' W 074°02'5 9.2
2017-Aug-07 00:29N 39°44' W 073°59'5 9.3
2017-Aug-06 23:54N 39°50' W 073°58'36 9.8
2017-Aug-06 20:13N 40°26' W 073°54'2 9.2
2017-Aug-06 19:59N 40°28' W 073°54'5 8.9
2017-Aug-06 19:28N 40°31' W 073°58'4 8.6
2017-Aug-06 19:00N 40°34' W 074°02'3 6.4
2017-Aug-06 18:30N 40°37' W 074°03'3 6.2
2017-Aug-06 18:00N 40°39' W 074°06'0 0.0
2017-Aug-06 17:30N 40°39' W 074°06'0 0.1
2017-Aug-06 17:00N 40°39' W 074°06'0 0.0
2017-Aug-06 16:30N 40°39' W 074°06'0 0.0
2017-Aug-06 16:00N 40°39' W 074°06'0 0.0
2017-Aug-06 15:30N 40°39' W 074°06'0 0.0
2017-Aug-06 15:00N 40°39' W 074°06'0 0.0
2017-Aug-06 14:30N 40°39' W 074°06'0 0.0
2017-Aug-06 14:00N 40°39' W 074°06'0 0.0
2017-Aug-06 13:30N 40°39' W 074°06'0 0.0
2017-Aug-06 13:00N 40°39' W 074°06'0 0.0
2017-Aug-06 12:31N 40°39' W 074°06'0 0.0
2017-Aug-06 12:00N 40°39' W 074°06'0 0.0
2017-Aug-06 11:30N 40°39' W 074°06'0 0.0
2017-Aug-06 11:00N 40°39' W 074°06'0 0.0
2017-Aug-06 10:30N 40°39' W 074°06'0 0.0
2017-Aug-06 10:00N 40°39' W 074°06'0 0.0
2017-Aug-06 09:31N 40°39' W 074°06'0 0.0
2017-Aug-06 09:00N 40°39' W 074°06'0 0.1
2017-Aug-06 08:30N 40°39' W 074°06'3 5.3
2017-Aug-06 08:00N 40°40' W 074°03'4 8.6
2017-Aug-06 07:30N 40°43' W 073°58'4 8.6
2017-Aug-06 06:59N 40°47' W 073°56'3 6.4
2017-Aug-06 06:30N 40°48' W 073°52'2 4.2
2017-Aug-06 06:00N 40°46' W 073°51'0 0.4
2017-Aug-06 05:30N 40°46' W 073°51'0 0.0
2017-Aug-06 05:00N 40°46' W 073°51'0 0.0
2017-Aug-06 04:30N 40°46' W 073°51'0 0.0
2017-Aug-06 04:00N 40°46' W 073°51'0 0.0
2017-Aug-06 03:30N 40°46' W 073°51'0 0.0
2017-Aug-06 03:00N 40°46' W 073°51'0 0.0
2017-Aug-06 02:30N 40°46' W 073°51'0 0.0
2017-Aug-06 02:00N 40°46' W 073°51'0 0.0
2017-Aug-06 01:30N 40°46' W 073°51'0 0.0
2017-Aug-06 01:00N 40°46' W 073°51'0 0.0
2017-Aug-06 00:30N 40°46' W 073°51'0 0.0
2017-Aug-05 23:50N 40°46' W 073°51'0 0.0
2017-Aug-05 23:28N 40°46' W 073°51'0 0.0
2017-Aug-05 23:00N 40°46' W 073°51'0 0.0
2017-Aug-05 22:29N 40°46' W 073°51'0 0.0
2017-Aug-05 22:00N 40°46' W 073°51'0 0.0
2017-Aug-05 21:29N 40°46' W 073°51'0 0.0
2017-Aug-05 21:00N 40°46' W 073°51'0 0.0
2017-Aug-05 20:30N 40°46' W 073°51'0 0.0
2017-Aug-05 20:01N 40°46' W 073°51'0 0.0
2017-Aug-05 19:30N 40°46' W 073°51'0 0.0
2017-Aug-05 18:59N 40°46' W 073°51'0 0.0
2017-Aug-05 18:30N 40°46' W 073°51'  

Dump ship's entire track history